Time;durP1;ratioP1;P1;durP2;ratioP2;P2;SDS_P1;SDS_P2;PMS_P1;PMS_P2;Temp;Humidity;BMP_temperature;BMP_pressure;BME280_temperature;BME280_humidity;BME280_pressure;Samples;Min_cycle;Max_cycle;Signal;HPM_P1;HPM_P2
2022/01/11 00:00:28;;;;;;;14.00;4.35;;;2.40;96.40;;;;;;9818968;29;20066;-63
2022/01/11 00:05:44;;;;;;;14.35;5.28;;;2.50;96.50;;;;;;9824865;29;20056;-62
2022/01/11 00:10:45;;;;;;;7.82;4.45;;;2.40;96.40;;;;;;9810542;29;20678;-62
2022/01/11 00:15:36;;;;;;;11.90;5.10;;;2.40;96.40;;;;;;9817420;29;20188;-62
2022/01/11 00:20:28;;;;;;;8.45;4.57;;;2.30;96.50;;;;;;9822159;29;20099;-62
2022/01/11 00:25:19;;;;;;;14.40;5.90;;;2.20;96.40;;;;;;9819780;29;20635;-64
2022/01/11 00:30:09;;;;;;;12.43;4.85;;;2.20;96.40;;;;;;9819766;29;21226;-64
2022/01/11 00:35:03;;;;;;;11.10;5.22;;;2.00;96.60;;;;;;9820159;29;20031;-62
2022/01/11 00:39:53;;;;;;;8.20;4.22;;;1.90;96.50;;;;;;9819353;29;20115;-63
2022/01/11 00:44:44;;;;;;;10.32;3.50;;;1.80;96.70;;;;;;9825519;29;20135;-64
2022/01/11 00:49:35;;;;;;;15.43;5.30;;;1.80;96.70;;;;;;9819664;29;20400;-64
2022/01/11 00:54:26;;;;;;;8.57;3.65;;;1.70;96.60;;;;;;9817524;29;20451;-61
2022/01/11 00:59:17;;;;;;;9.20;4.78;;;1.80;96.80;;;;;;9811203;29;20024;-64
2022/01/11 01:04:08;;;;;;;9.93;3.88;;;1.80;96.80;;;;;;9816926;29;20099;-62
2022/01/11 01:08:59;;;;;;;10.82;5.20;;;1.90;96.70;;;;;;9821477;29;20466;-62
2022/01/11 01:13:50;;;;;;;10.38;4.28;;;2.00;96.60;;;;;;9828085;29;20046;-62
2022/01/11 01:18:41;;;;;;;7.47;3.75;;;2.10;96.50;;;;;;9818324;29;20036;-62
2022/01/11 01:23:32;;;;;;;8.18;3.28;;;2.00;96.80;;;;;;9819116;29;20065;-62
2022/01/11 01:28:24;;;;;;;10.73;4.47;;;2.20;96.70;;;;;;9818174;29;20115;-63
2022/01/11 01:33:15;;;;;;;12.40;4.72;;;2.30;96.50;;;;;;9816902;29;20028;-61
2022/01/11 01:38:08;;;;;;;8.77;3.92;;;2.30;96.50;;;;;;9818264;29;20060;-62
2022/01/11 01:42:59;;;;;;;11.30;4.38;;;2.20;96.50;;;;;;9818241;29;20040;-62
2022/01/11 01:47:56;;;;;;;11.57;4.88;;;2.20;96.70;;;;;;9815490;29;20061;-62
2022/01/11 01:52:47;;;;;;;9.65;4.97;;;2.20;96.80;;;;;;9813500;29;20036;-62
2022/01/11 01:57:38;;;;;;;10.90;4.45;;;2.10;96.90;;;;;;9824616;29;20455;-62
2022/01/11 02:02:28;;;;;;;7.95;4.28;;;1.90;97.10;;;;;;9824121;29;20048;-62
2022/01/11 02:07:19;;;;;;;12.13;4.25;;;1.70;97.20;;;;;;9827722;29;20041;-62
2022/01/11 02:12:10;;;;;;;6.03;3.83;;;1.80;97.30;;;;;;9825208;29;20039;-62
2022/01/11 02:17:01;;;;;;;10.25;3.80;;;1.80;97.20;;;;;;9835983;29;20581;-63
2022/01/11 02:21:51;;;;;;;7.55;3.67;;;1.80;97.20;;;;;;9826138;29;20485;-63
2022/01/11 02:26:42;;;;;;;5.47;3.72;;;1.80;97.30;;;;;;9820504;29;20406;-63
2022/01/11 02:31:39;;;;;;;10.35;4.15;;;1.90;97.30;;;;;;9821018;29;20028;-63
2022/01/11 02:36:33;;;;;;;11.48;4.22;;;2.00;97.10;;;;;;9826413;29;20402;-62
2022/01/11 02:41:28;;;;;;;7.53;4.32;;;2.10;97.00;;;;;;9822669;29;20032;-62
2022/01/11 02:46:21;;;;;;;11.02;4.40;;;2.20;96.90;;;;;;9817138;29;20042;-62
2022/01/11 02:51:12;;;;;;;12.50;4.85;;;2.30;96.70;;;;;;9829097;29;20395;-63
2022/01/11 02:56:03;;;;;;;12.38;5.50;;;2.30;96.90;;;;;;9821204;29;20095;-63
2022/01/11 03:00:53;;;;;;;14.18;5.20;;;2.20;97.00;;;;;;9824595;29;20095;-63
2022/01/11 03:05:46;;;;;;;15.13;4.57;;;2.20;97.10;;;;;;9825291;29;20406;-64
2022/01/11 03:10:36;;;;;;;13.63;4.30;;;2.20;97.20;;;;;;9821111;29;20035;-62
2022/01/11 03:15:27;;;;;;;13.25;5.40;;;2.30;97.00;;;;;;9825233;29;20028;-63
2022/01/11 03:20:18;;;;;;;10.95;5.93;;;2.20;97.20;;;;;;9819198;29;20518;-63
2022/01/11 03:25:09;;;;;;;13.25;4.93;;;2.10;97.40;;;;;;9822208;29;20079;-62
2022/01/11 03:30:00;;;;;;;18.33;5.38;;;2.10;97.50;;;;;;9822330;29;20039;-63
2022/01/11 03:34:50;;;;;;;15.82;5.28;;;2.10;97.50;;;;;;9825934;29;20075;-62
2022/01/11 03:39:41;;;;;;;17.77;5.53;;;2.10;97.60;;;;;;9823170;29;20514;-62
2022/01/11 03:44:32;;;;;;;10.27;4.45;;;2.00;97.70;;;;;;9825066;29;20044;-62
2022/01/11 03:49:23;;;;;;;13.18;4.40;;;2.10;97.60;;;;;;9824098;29;20024;-63
2022/01/11 03:54:16;;;;;;;14.05;4.70;;;1.90;97.80;;;;;;9820998;29;20024;-62
2022/01/11 03:59:07;;;;;;;13.35;5.18;;;1.90;98.00;;;;;;9824362;29;20166;-62
2022/01/11 04:03:58;;;;;;;9.57;4.80;;;1.90;97.90;;;;;;9821741;29;20470;-62
2022/01/11 04:08:49;;;;;;;14.20;5.07;;;1.90;97.90;;;;;;9816965;29;20036;-63
2022/01/11 04:13:40;;;;;;;11.40;4.80;;;2.00;97.60;;;;;;9816691;29;20189;-63
2022/01/11 04:18:31;;;;;;;8.40;4.55;;;2.10;97.50;;;;;;9828384;29;20056;-63
2022/01/11 04:23:23;;;;;;;16.25;5.55;;;2.20;97.30;;;;;;9815456;29;20076;-64
2022/01/11 04:28:14;;;;;;;10.32;4.80;;;2.20;97.40;;;;;;9818428;29;20180;-62
2022/01/11 04:33:05;;;;;;;7.97;4.72;;;2.10;97.60;;;;;;9817280;29;20275;-63
2022/01/11 04:37:55;;;;;;;15.55;4.82;;;2.10;97.50;;;;;;9820073;29;20028;-62
2022/01/11 04:42:46;;;;;;;16.40;4.93;;;2.10;97.50;;;;;;9820282;29;20076;-61
2022/01/11 04:47:37;;;;;;;9.30;4.30;;;2.20;97.50;;;;;;9814656;29;20509;-62
2022/01/11 04:52:28;;;;;;;9.65;4.65;;;2.00;97.80;;;;;;9815719;29;20447;-62
2022/01/11 04:57:18;;;;;;;12.60;4.30;;;1.90;98.00;;;;;;9823843;29;20020;-63
2022/01/11 05:02:09;;;;;;;11.45;4.00;;;2.00;97.90;;;;;;9818062;29;20051;-63
2022/01/11 05:07:00;;;;;;;12.32;4.63;;;1.90;97.70;;;;;;9822383;29;20570;-62
2022/01/11 05:11:52;;;;;;;10.30;4.88;;;1.90;97.80;;;;;;9815555;29;20349;-62
2022/01/11 05:16:42;;;;;;;14.02;5.15;;;1.80;97.80;;;;;;9827097;29;20455;-62
2022/01/11 05:21:33;;;;;;;11.00;4.07;;;1.90;98.20;;;;;;9816818;29;20042;-62
2022/01/11 05:26:24;;;;;;;12.93;4.55;;;1.90;98.10;;;;;;9814950;29;20460;-62
2022/01/11 05:31:14;;;;;;;10.60;4.95;;;2.00;98.00;;;;;;9816113;29;20115;-62
2022/01/11 05:36:05;;;;;;;14.77;5.53;;;2.00;98.30;;;;;;9815977;29;20040;-63
2022/01/11 05:40:56;;;;;;;13.52;4.40;;;1.90;98.30;;;;;;9815349;29;20319;-62
2022/01/11 05:45:47;;;;;;;13.52;4.88;;;2.00;98.30;;;;;;9812556;29;20404;-63
2022/01/11 05:50:38;;;;;;;11.77;4.32;;;1.80;98.60;;;;;;9815731;29;20400;-63
2022/01/11 05:55:29;;;;;;;15.38;5.43;;;1.70;98.50;;;;;;9817381;29;20192;-62
2022/01/11 06:00:21;;;;;;;14.70;5.63;;;1.90;98.70;;;;;;9814673;29;20184;-63
2022/01/11 06:05:12;;;;;;;11.13;5.40;;;2.00;98.40;;;;;;9816170;29;20502;-64
2022/01/11 06:10:03;;;;;;;19.95;5.43;;;2.00;98.60;;;;;;9822101;29;20036;-63
2022/01/11 06:14:55;;;;;;;16.88;6.32;;;2.10;98.50;;;;;;9818555;29;20037;-63
2022/01/11 06:19:45;;;;;;;12.98;6.35;;;2.10;98.60;;;;;;9814266;29;20309;-63
2022/01/11 06:24:36;;;;;;;13.60;5.00;;;2.20;98.40;;;;;;9816237;29;20518;-62
2022/01/11 06:29:27;;;;;;;13.25;5.18;;;2.20;98.30;;;;;;9815002;29;20554;-64
2022/01/11 06:34:17;;;;;;;15.27;5.90;;;2.20;98.30;;;;;;9819428;29;20397;-63
2022/01/11 06:39:08;;;;;;;11.73;5.47;;;2.30;98.20;;;;;;9816358;29;20028;-63
2022/01/11 06:43:59;;;;;;;15.35;5.72;;;2.30;98.00;;;;;;9817115;29;20036;-63
2022/01/11 06:48:51;;;;;;;13.88;6.15;;;2.30;98.00;;;;;;9820848;29;20036;-63
2022/01/11 06:53:42;;;;;;;11.20;4.95;;;2.20;98.10;;;;;;9820954;29;20041;-62
2022/01/11 06:58:32;;;;;;;12.57;4.88;;;2.30;98.10;;;;;;9824250;29;20032;-63
2022/01/11 07:03:23;;;;;;;13.73;4.70;;;2.20;98.40;;;;;;9827871;29;20039;-63
2022/01/11 07:08:14;;;;;;;13.80;6.10;;;2.10;98.10;;;;;;9823528;29;20287;-64
2022/01/11 07:13:05;;;;;;;12.93;5.30;;;2.10;98.40;;;;;;9818671;29;20032;-63
2022/01/11 07:17:55;;;;;;;17.40;4.88;;;2.10;98.20;;;;;;9822903;29;20066;-63
2022/01/11 07:22:47;;;;;;;17.20;5.32;;;2.10;98.30;;;;;;9824411;29;20237;-64
2022/01/11 07:27:38;;;;;;;12.23;5.35;;;2.10;98.30;;;;;;9821087;29;20574;-62
2022/01/11 07:32:31;;;;;;;13.75;5.85;;;2.00;98.40;;;;;;9821982;29;20039;-63
2022/01/11 07:37:22;;;;;;;11.00;4.72;;;2.20;98.40;;;;;;9821595;29;20099;-63
2022/01/11 07:42:12;;;;;;;16.70;6.30;;;2.20;98.30;;;;;;9812404;29;20740;-62
2022/01/11 07:47:04;;;;;;;12.57;5.22;;;2.20;98.30;;;;;;9816647;29;20091;-60
2022/01/11 07:51:55;;;;;;;13.35;5.00;;;2.20;98.30;;;;;;9821804;29;20071;-62
2022/01/11 07:56:46;;;;;;;12.70;5.22;;;2.30;98.20;;;;;;9819598;29;20147;-60
2022/01/11 08:01:37;;;;;;;14.55;5.20;;;2.30;98.20;;;;;;9816658;29;20111;-60
2022/01/11 08:06:27;;;;;;;12.05;5.90;;;2.40;98.00;;;;;;9818634;29;20249;-61
2022/01/11 08:11:18;;;;;;;14.65;6.30;;;2.60;97.80;;;;;;9816675;29;20035;-62
2022/01/11 08:16:09;;;;;;;13.32;5.70;;;2.70;97.70;;;;;;9816425;29;20052;-63
2022/01/11 08:20:59;;;;;;;15.95;6.03;;;2.70;97.60;;;;;;9810268;29;20081;-62
2022/01/11 08:25:50;;;;;;;14.60;6.28;;;2.70;97.70;;;;;;9818679;29;20085;-61
2022/01/11 08:30:41;;;;;;;15.20;6.00;;;2.60;97.60;;;;;;9818849;29;20518;-60
2022/01/11 08:35:33;;;;;;;16.83;5.85;;;2.70;97.60;;;;;;9817392;29;20047;-61
2022/01/11 08:40:25;;;;;;;14.48;6.88;;;2.80;97.70;;;;;;9815556;29;20028;-61
2022/01/11 08:45:16;;;;;;;19.15;6.88;;;2.90;97.60;;;;;;9813986;29;20403;-64
2022/01/11 08:50:10;;;;;;;13.77;6.00;;;3.00;97.60;;;;;;9814237;29;20028;-63
2022/01/11 08:55:01;;;;;;;18.77;7.00;;;3.00;97.60;;;;;;9813969;29;20111;-65
2022/01/11 08:59:52;;;;;;;16.92;7.63;;;3.10;97.70;;;;;;9812691;29;20032;-62
2022/01/11 09:04:44;;;;;;;14.98;7.07;;;3.20;97.80;;;;;;9816092;29;20055;-68
2022/01/11 09:09:35;;;;;;;20.85;8.00;;;3.30;97.70;;;;;;9812639;29;20021;-65
2022/01/11 09:14:25;;;;;;;15.95;7.57;;;3.40;97.60;;;;;;9816234;29;20491;-67
2022/01/11 09:19:18;;;;;;;18.17;8.30;;;3.30;97.70;;;;;;9818118;29;20470;-67
2022/01/11 09:24:11;;;;;;;19.13;8.82;;;3.30;97.70;;;;;;9816826;29;20039;-67
2022/01/11 09:29:02;;;;;;;22.30;8.43;;;3.40;97.70;;;;;;9824489;29;20032;-69
2022/01/11 09:33:53;;;;;;;17.02;8.15;;;3.60;97.70;;;;;;9813827;29;20115;-62
2022/01/11 09:38:44;;;;;;;19.02;9.48;;;3.60;97.70;;;;;;9810447;29;20036;-67
2022/01/11 09:43:35;;;;;;;17.77;8.80;;;3.80;97.80;;;;;;9816716;29;20051;-69
2022/01/11 09:48:29;;;;;;;15.60;7.88;;;3.60;97.60;;;;;;9814389;29;20036;-65
2022/01/11 09:53:20;;;;;;;20.52;8.45;;;3.60;97.90;;;;;;9816182;29;20028;-63
2022/01/11 09:58:13;;;;;;;23.80;9.18;;;3.90;97.70;;;;;;9816593;29;20384;-66
2022/01/11 10:03:05;;;;;;;16.92;7.13;;;3.90;97.50;;;;;;9815259;29;20044;-64
2022/01/11 10:07:56;;;;;;;21.85;8.30;;;3.90;97.50;;;;;;9813968;29;20112;-64
2022/01/11 10:12:48;;;;;;;22.58;8.13;;;4.00;97.60;;;;;;9812206;29;20036;-63
2022/01/11 10:17:42;;;;;;;18.05;7.78;;;3.80;97.60;;;;;;9828202;29;20036;-65
2022/01/11 10:22:34;;;;;;;19.10;7.65;;;3.90;97.80;;;;;;9821466;29;20047;-66
2022/01/11 10:27:28;;;;;;;20.80;8.75;;;4.10;97.40;;;;;;9824000;29;20135;-65
2022/01/11 10:32:27;;;;;;;17.90;9.48;;;4.20;97.70;;;;;;9820710;29;20031;-65
2022/01/11 10:37:33;;;;;;;16.92;8.57;;;4.50;97.40;;;;;;9818715;29;20093;-65
2022/01/11 10:42:32;;;;;;;17.45;7.22;;;4.50;97.30;;;;;;9815446;29;20558;-66
2022/01/11 10:47:30;;;;;;;14.95;8.02;;;4.30;97.10;;;;;;9821720;29;20051;-65
2022/01/11 10:52:27;;;;;;;15.25;7.15;;;4.40;97.40;;;;;;9822545;29;20030;-66
2022/01/11 10:57:23;;;;;;;18.65;8.93;;;4.60;97.30;;;;;;9819488;29;20039;-67
2022/01/11 11:02:26;;;;;;;16.73;8.52;;;4.70;97.10;;;;;;9819971;29;20031;-63
2022/01/11 11:07:18;;;;;;;18.42;8.85;;;4.60;97.00;;;;;;9823976;29;20345;-63
2022/01/11 11:12:13;;;;;;;15.18;8.80;;;4.50;96.90;;;;;;9823008;29;20032;-65
2022/01/11 11:17:24;;;;;;;20.70;9.25;;;4.70;97.10;;;;;;9820492;29;20115;-64
2022/01/11 11:22:15;;;;;;;19.40;8.25;;;5.00;96.80;;;;;;9817590;29;20455;-64
2022/01/11 11:27:06;;;;;;;18.80;9.68;;;4.90;96.60;;;;;;9817274;29;20036;-66
2022/01/11 11:31:57;;;;;;;19.25;8.98;;;5.20;96.60;;;;;;9816543;29;20065;-64
2022/01/11 11:36:48;;;;;;;13.60;7.68;;;5.30;96.20;;;;;;9820868;29;20414;-64
2022/01/11 11:41:41;;;;;;;18.17;8.05;;;5.30;96.20;;;;;;9821197;29;20351;-63
2022/01/11 11:46:52;;;;;;;20.45;9.50;;;5.10;96.20;;;;;;9820603;29;20533;-68
2022/01/11 11:51:44;;;;;;;15.95;7.20;;;5.00;96.40;;;;;;9825856;29;20068;-67
2022/01/11 11:56:35;;;;;;;15.40;8.25;;;5.10;96.30;;;;;;9816034;29;20107;-66
2022/01/11 12:01:30;;;;;;;16.17;7.63;;;5.40;96.10;;;;;;9819606;29;20487;-63
2022/01/11 12:06:28;;;;;;;11.48;5.82;;;5.40;95.80;;;;;;9820479;29;20055;-65
2022/01/11 12:11:19;;;;;;;13.15;7.03;;;5.30;95.90;;;;;;9819849;29;20111;-60
2022/01/11 12:16:25;;;;;;;10.38;5.82;;;5.20;96.00;;;;;;9821326;29;20028;-65
2022/01/11 12:21:16;;;;;;;14.27;7.53;;;5.20;96.00;;;;;;9823984;29;20466;-64
2022/01/11 12:26:20;;;;;;;11.50;6.18;;;5.10;96.00;;;;;;9821137;29;20507;-69
2022/01/11 12:31:33;;;;;;;13.38;6.07;;;5.20;95.90;;;;;;9817814;29;20400;-64
2022/01/11 12:36:50;;;;;;;12.90;6.25;;;5.40;95.70;;;;;;9823785;29;20561;-64
2022/01/11 12:41:41;;;;;;;13.77;7.03;;;5.50;95.50;;;;;;9817246;29;20040;-62
2022/01/11 12:46:49;;;;;;;14.50;7.25;;;5.40;95.60;;;;;;9818225;29;20049;-64
2022/01/11 12:52:26;;;;;;;11.95;6.10;;;5.40;95.60;;;;;;9817134;29;20411;-63
2022/01/11 12:56:55;;;;;;;15.18;7.43;;;5.50;95.50;;;;;;9808098;29;20542;-69
2022/01/11 13:01:55;;;;;;;12.57;6.53;;;5.60;95.40;;;;;;9817561;29;20036;-66
2022/01/11 13:06:46;;;;;;;17.60;6.97;;;5.70;95.30;;;;;;9810007;29;20052;-64
2022/01/11 13:11:41;;;;;;;15.82;7.07;;;5.80;95.20;;;;;;9811534;29;20474;-66
2022/01/11 13:16:32;;;;;;;11.70;5.60;;;5.80;95.20;;;;;;9816057;29;20451;-65
2022/01/11 13:21:23;;;;;;;15.10;6.45;;;5.80;95.20;;;;;;9817439;29;20036;-63
2022/01/11 13:26:20;;;;;;;9.63;5.55;;;5.90;95.10;;;;;;9812999;29;20051;-62
2022/01/11 13:31:18;;;;;;;10.32;5.13;;;5.90;95.20;;;;;;9814313;29;20024;-64
2022/01/11 13:36:21;;;;;;;11.95;6.30;;;6.00;95.00;;;;;;9814526;29;20111;-62
2022/01/11 13:41:13;;;;;;;15.85;6.07;;;6.10;94.90;;;;;;9816999;29;20431;-63
2022/01/11 13:46:13;;;;;;;9.60;5.90;;;6.20;94.90;;;;;;9813394;29;20036;-62
2022/01/11 13:51:03;;;;;;;9.50;4.78;;;6.40;94.80;;;;;;9818696;29;20036;-64
2022/01/11 13:56:02;;;;;;;7.28;3.28;;;6.50;94.50;;;;;;9822537;29;20032;-61
2022/01/11 14:00:53;;;;;;;11.65;5.05;;;6.60;94.50;;;;;;9821547;29;20469;-66
2022/01/11 14:05:44;;;;;;;8.25;3.85;;;6.50;94.40;;;;;;9821061;29;20056;-61
2022/01/11 14:10:37;;;;;;;9.15;5.70;;;6.50;94.50;;;;;;9821802;29;20036;-62
2022/01/11 14:15:29;;;;;;;9.48;4.60;;;6.70;94.50;;;;;;9818909;29;20455;-65
2022/01/11 14:20:28;;;;;;;9.13;4.50;;;6.70;94.50;;;;;;9818931;29;20024;-64
2022/01/11 14:25:24;;;;;;;8.98;4.18;;;6.70;94.10;;;;;;9821587;29;20056;-63
2022/01/11 14:30:17;;;;;;;6.10;3.95;;;6.50;93.90;;;;;;9819000;29;20024;-66
2022/01/11 14:35:07;;;;;;;10.43;3.65;;;6.50;94.30;;;;;;9819959;29;20562;-64
2022/01/11 14:40:02;;;;;;;6.93;3.55;;;6.50;94.20;;;;;;9817027;29;20402;-62
2022/01/11 14:45:17;;;;;;;7.35;3.50;;;6.40;94.20;;;;;;9817325;29;20869;-67
2022/01/11 14:50:11;;;;;;;6.47;3.20;;;6.40;93.70;;;;;;9824000;29;20436;-67
2022/01/11 14:55:04;;;;;;;5.30;2.95;;;6.30;93.90;;;;;;9825413;29;20028;-66
2022/01/11 14:59:54;;;;;;;6.25;4.15;;;6.30;93.40;;;;;;9816802;29;20051;-66
2022/01/11 15:04:45;;;;;;;8.55;4.43;;;6.20;93.40;;;;;;9820804;29;20557;-69
2022/01/11 15:09:41;;;;;;;6.30;4.05;;;6.10;93.70;;;;;;9817835;29;20143;-64
2022/01/11 15:14:33;;;;;;;;;;;6.00;93.60;;;;;;9819313;29;20043;-64
2022/01/11 15:19:25;;;;;;;9.00;4.35;;;5.90;93.10;;;;;;9827492;29;19914;-64
2022/01/11 15:24:15;;;;;;;11.43;4.13;;;6.00;93.50;;;;;;9820161;29;20043;-62
2022/01/11 15:29:10;;;;;;;9.25;4.55;;;5.90;93.20;;;;;;9818298;29;20023;-65
2022/01/11 15:34:02;;;;;;;8.00;4.03;;;5.90;93.30;;;;;;9819035;29;20036;-64
2022/01/11 15:38:53;;;;;;;7.38;3.35;;;5.90;93.20;;;;;;9816944;29;20640;-63
2022/01/11 15:43:45;;;;;;;5.78;3.47;;;5.80;93.20;;;;;;9818699;29;20608;-66
2022/01/11 15:48:37;;;;;;;7.88;3.83;;;5.70;93.50;;;;;;9817545;29;20051;-63
2022/01/11 15:53:27;;;;;;;11.25;3.55;;;5.60;93.10;;;;;;9822166;29;20024;-66
2022/01/11 15:58:18;;;;;;;8.02;4.22;;;5.40;93.10;;;;;;9834436;29;20468;-63
2022/01/11 16:03:09;;;;;;;8.68;4.10;;;5.40;93.10;;;;;;9819349;29;20050;-68
2022/01/11 16:08:00;;;;;;;7.50;4.55;;;5.30;93.10;;;;;;9819412;29;20222;-73
2022/01/11 16:12:51;;;;;;;11.25;3.97;;;5.20;93.20;;;;;;9816295;29;20570;-63
2022/01/11 16:17:42;;;;;;;5.25;3.75;;;5.10;93.10;;;;;;9821009;29;20406;-67
2022/01/11 16:22:33;;;;;;;9.30;3.45;;;5.00;93.10;;;;;;9818610;29;20067;-69
2022/01/11 16:27:23;;;;;;;7.00;3.30;;;5.00;93.10;;;;;;9821160;29;20028;-64
2022/01/11 16:32:14;;;;;;;6.88;3.88;;;5.00;93.10;;;;;;9815764;29;20055;-64
2022/01/11 16:37:08;;;;;;;8.85;3.67;;;4.90;93.10;;;;;;9819954;29;20431;-67
2022/01/11 16:47:09;;;;;;;8.65;3.58;;;4.80;93.00;;;;;;9816996;29;20491;-63
2022/01/11 16:51:59;;;;;;;7.72;3.63;;;4.80;93.00;;;;;;9818757;29;20039;-65
2022/01/11 16:56:50;;;;;;;6.75;3.92;;;4.80;93.00;;;;;;9817377;29;20079;-65
2022/01/11 17:01:41;;;;;;;6.50;3.20;;;4.70;92.90;;;;;;9817603;29;20071;-64
2022/01/11 17:06:32;;;;;;;5.85;3.92;;;4.70;93.00;;;;;;9817906;29;20106;-64
2022/01/11 17:11:23;;;;;;;5.65;2.67;;;4.60;92.90;;;;;;9816986;29;20548;-64
2022/01/11 17:16:14;;;;;;;6.43;2.75;;;4.60;92.90;;;;;;9818662;29;20411;-62
2022/01/11 17:21:07;;;;;;;6.93;2.60;;;4.50;92.90;;;;;;9815645;29;20031;-63
2022/01/11 17:25:57;;;;;;;5.03;2.65;;;4.50;92.80;;;;;;9817410;29;20071;-66
2022/01/11 17:30:48;;;;;;;5.18;2.85;;;4.50;92.80;;;;;;9816852;29;20223;-65
2022/01/11 17:35:39;;;;;;;7.85;2.97;;;4.40;92.70;;;;;;9819235;29;20141;-67
2022/01/11 17:40:30;;;;;;;5.03;2.78;;;4.40;92.70;;;;;;9817843;29;20479;-65
2022/01/11 17:45:20;;;;;;;4.85;2.72;;;4.30;92.70;;;;;;9814075;29;20040;-66
2022/01/11 17:50:12;;;;;;;6.05;2.55;;;4.30;92.90;;;;;;9812829;29;20048;-64
2022/01/11 17:55:04;;;;;;;6.20;2.88;;;4.30;92.60;;;;;;9816873;29;20389;-66
2022/01/11 17:59:54;;;;;;;6.93;2.83;;;4.30;92.50;;;;;;9813300;29;20036;-66
2022/01/11 18:04:45;;;;;;;7.40;3.13;;;4.30;92.60;;;;;;9815699;29;20059;-65
2022/01/11 18:09:36;;;;;;;7.43;3.65;;;4.20;92.50;;;;;;9818046;29;20495;-66
2022/01/11 18:14:27;;;;;;;7.05;3.50;;;4.20;92.50;;;;;;9817317;29;20115;-63
2022/01/11 18:19:21;;;;;;;6.63;3.72;;;4.20;92.50;;;;;;9811377;29;20551;-69
2022/01/11 18:24:12;;;;;;;5.45;2.97;;;4.20;92.50;;;;;;9814134;29;20133;-64
2022/01/11 18:29:02;;;;;;;4.28;2.42;;;4.10;92.50;;;;;;9814196;29;20096;-62
2022/01/11 18:33:53;;;;;;;5.55;3.13;;;4.10;92.40;;;;;;9817427;29;20040;-63
2022/01/11 18:38:44;;;;;;;5.32;2.50;;;4.10;92.40;;;;;;9817554;29;20028;-64
2022/01/11 18:43:34;;;;;;;5.65;3.20;;;4.10;92.30;;;;;;9821230;29;20039;-65
2022/01/11 18:48:27;;;;;;;6.60;2.70;;;4.10;92.30;;;;;;9818576;29;20051;-68
2022/01/11 18:53:17;;;;;;;6.18;3.67;;;4.10;92.30;;;;;;9822265;29;20096;-65
2022/01/11 18:58:08;;;;;;;6.80;3.53;;;4.10;92.30;;;;;;9819108;29;20391;-66
2022/01/11 19:02:59;;;;;;;6.60;2.42;;;4.10;92.30;;;;;;9824851;29;20043;-65
2022/01/11 19:07:50;;;;;;;4.90;2.60;;;4.00;92.30;;;;;;9824052;29;20052;-69
2022/01/11 19:12:41;;;;;;;8.07;3.30;;;4.00;92.30;;;;;;9822381;29;20034;-66
2022/01/11 19:17:32;;;;;;;5.40;3.22;;;4.00;92.30;;;;;;9819376;29;20104;-66
2022/01/11 19:22:23;;;;;;;8.35;3.28;;;3.90;92.30;;;;;;9820128;29;20051;-67
2022/01/11 19:27:14;;;;;;;5.88;3.42;;;3.90;92.30;;;;;;9818203;29;20031;-64
2022/01/11 19:32:06;;;;;;;6.88;3.58;;;3.90;92.30;;;;;;9818475;29;20487;-63
2022/01/11 19:36:57;;;;;;;8.45;3.05;;;3.90;92.20;;;;;;9822207;29;20139;-61
2022/01/11 19:41:48;;;;;;;5.65;2.92;;;3.80;92.20;;;;;;9822227;29;20099;-63
2022/01/11 19:46:39;;;;;;;6.43;3.40;;;3.80;92.20;;;;;;9819833;29;20045;-63
2022/01/11 19:51:32;;;;;;;6.72;3.67;;;3.80;92.20;;;;;;9818935;29;20033;-65
2022/01/11 19:56:23;;;;;;;7.03;3.38;;;3.70;92.20;;;;;;9821833;29;20339;-63
2022/01/11 20:01:14;;;;;;;6.53;3.35;;;3.70;92.20;;;;;;9826289;29;20028;-63
2022/01/11 20:06:06;;;;;;;5.80;3.30;;;3.70;92.20;;;;;;9823078;29;20462;-62
2022/01/11 20:10:58;;;;;;;5.28;3.22;;;3.70;92.20;;;;;;9824937;29;20028;-65
2022/01/11 20:15:49;;;;;;;6.68;3.80;;;3.60;92.20;;;;;;9823860;29;20035;-61
2022/01/11 20:20:45;;;;;;;6.95;3.65;;;3.60;92.10;;;;;;9824789;29;20035;-63
2022/01/11 20:30:46;;;;;;;6.45;3.83;;;3.60;92.10;;;;;;9825480;29;20075;-69
2022/01/11 20:35:37;;;;;;;7.53;3.47;;;3.50;92.10;;;;;;9820352;29;20051;-61
2022/01/11 20:40:28;;;;;;;10.70;3.90;;;3.50;92.10;;;;;;9819095;29;20027;-64
2022/01/11 20:45:19;;;;;;;7.80;4.05;;;3.40;92.10;;;;;;9819551;29;20388;-66
2022/01/11 20:55:04;;;;;;;9.30;4.32;;;3.30;92.20;;;;;;9821787;29;20435;-64
2022/01/11 20:59:55;;;;;;;9.75;4.10;;;3.30;92.20;;;;;;9812837;29;20059;-64
2022/01/11 21:04:46;;;;;;;8.20;4.35;;;3.30;92.10;;;;;;9819571;29;20079;-64
2022/01/11 21:09:36;;;;;;;6.32;3.65;;;3.30;92.20;;;;;;9817817;29;20578;-65
2022/01/11 21:14:30;;;;;;;6.55;3.55;;;3.30;92.20;;;;;;9816966;29;20020;-65
2022/01/11 21:24:30;;;;;;;5.28;3.42;;;3.30;92.10;;;;;;9805913;29;20414;-65
2022/01/11 21:29:21;;;;;;;9.27;4.25;;;3.20;92.20;;;;;;9812235;29;20035;-64
2022/01/11 21:34:12;;;;;;;8.50;4.07;;;3.20;92.30;;;;;;9811595;29;20302;-63
2022/01/11 21:39:05;;;;;;;8.57;4.22;;;3.10;92.30;;;;;;9809682;29;20024;-62
2022/01/11 21:43:57;;;;;;;6.35;4.07;;;3.10;92.30;;;;;;9817443;29;20050;-67
2022/01/11 21:48:48;;;;;;;7.60;4.15;;;3.10;92.30;;;;;;9814850;29;20036;-66
2022/01/11 21:53:40;;;;;;;9.32;5.03;;;3.10;92.30;;;;;;9813942;29;20036;-66
2022/01/11 21:58:31;;;;;;;7.03;4.30;;;3.00;92.30;;;;;;9816761;29;20566;-68
2022/01/11 22:03:22;;;;;;;9.40;3.97;;;3.00;92.40;;;;;;9812584;29;20036;-67
2022/01/11 22:08:12;;;;;;;8.48;4.35;;;3.00;92.60;;;;;;9813264;29;20411;-66
2022/01/11 22:13:17;;;;;;;7.68;3.55;;;3.10;92.30;;;;;;9821499;29;20492;-66
2022/01/11 22:18:07;;;;;;;8.77;3.63;;;3.10;92.30;;;;;;9821135;29;20399;-65
2022/01/11 22:22:58;;;;;;;8.43;4.35;;;3.00;92.30;;;;;;9825543;29;20032;-65
2022/01/11 22:27:49;;;;;;;9.85;4.15;;;3.00;92.40;;;;;;9827058;29;20387;-66
2022/01/11 22:32:40;;;;;;;9.10;3.92;;;3.00;92.40;;;;;;9821466;29;20510;-65
2022/01/11 22:37:32;;;;;;;5.63;4.05;;;3.00;92.40;;;;;;9822911;29;20028;-64
2022/01/11 22:42:23;;;;;;;7.75;3.10;;;3.00;92.50;;;;;;9822193;29;20032;-64
2022/01/11 22:47:15;;;;;;;9.50;4.20;;;2.90;92.50;;;;;;9827654;29;20055;-65
2022/01/11 22:52:08;;;;;;;8.35;4.18;;;2.90;92.50;;;;;;9832149;29;20107;-65
2022/01/11 22:56:59;;;;;;;8.13;3.53;;;2.90;92.60;;;;;;9826657;29;20028;-65
2022/01/11 23:01:49;;;;;;;7.03;3.95;;;2.90;92.50;;;;;;9824085;29;20027;-63
2022/01/11 23:06:41;;;;;;;10.93;4.03;;;2.80;92.40;;;;;;9825138;29;20064;-64
2022/01/11 23:11:35;;;;;;;8.30;4.32;;;2.70;92.50;;;;;;9829367;29;20514;-66
2022/01/11 23:16:26;;;;;;;8.40;4.22;;;2.70;92.60;;;;;;9824348;29;20115;-65
2022/01/11 23:21:17;;;;;;;8.98;4.15;;;2.70;92.60;;;;;;9822806;29;20036;-66
2022/01/11 23:26:08;;;;;;;6.80;3.85;;;2.70;92.60;;;;;;9818824;29;20143;-65
2022/01/11 23:31:00;;;;;;;6.68;3.78;;;2.70;92.60;;;;;;9816639;29;20071;-64
2022/01/11 23:35:51;;;;;;;10.50;4.90;;;2.70;92.60;;;;;;9820601;29;20371;-64
2022/01/11 23:50:23;;;;;;;9.23;4.93;;;2.60;92.80;;;;;;9820373;29;20043;-64
2022/01/11 23:55:14;;;;;;;9.20;4.13;;;2.60;92.70;;;;;;9820255;29;20087;-64
